Accueil
METAR-TAF:

METAR-TAF

Aéroports :

Aéroport de Florence-Peretola

Florence, Italie

latitude: 43-48N, longitude: 011-12E, altitude: 40 m

Observation

Le bulletin a été fait il y a 32 minutes, à 20:50 UTC
Vent 4 kt de sud/sud-ouest
Température 8°C
Humidité 76%
Pression 1008 hPa
Visibilité 10 km ou plus
Nuages fragmentés à une hauteur de 5000 ft

METAR: LIRQ 202050Z 20004KT 9999 BKN050 08/04 Q1008

Heure: 22:22 (21:22 UTC)

Prévision

Le bulletin a été fait il y a 4 heures et 22 minutes, à 17:00 UTC
Prévision valable du 20 à 18 UTC au 21 à 18 UTC
Vent 6 kt de direction variable
Visibilité 10 km ou plus
Nuages épars à une hauteur de 2500 ft
Temporairement
du 20 à 18 UTC au 20 à 22 UTC
pluie
Temporairement
du 21 à 12 UTC au 21 à 18 UTC
Visibilité: 4000 m
averses de pluie

TAF: LIRQ 201700Z 2018/2118 VRB06KT 9999 SCT025 TEMPO 2018/2022 RA TEMPO 2112/2118 4000 SHRA

Observations et prévisions météorologiques de plus de 4000 aéroports (messages METAR et TAF).

Les stations disponibles sont représentées par des disques jaunes et rouges sur la carte.

Passer la souris dessus pour voir le nom de la station.

Cliquer dessus pour voir les observations et prévisions météorologiques.

Pour changer de carte: cliquez sur les boutons verts avec une croix noire pour zoomer, sur le bouton vert avec un tiret pour effectuer un zoom arrière, ou sur les flèches vertes pour les cartes adjacentes.


METAR-TAF: